메인 페이지
METAR-TAF:

METAR-TAF

공항 :

멜버른 공항

멜버른, 오스트레일리아

위도: 37-40-24S, 경도: 144-50-36E, 고도: 132m

현재 날씨관측

예보는 36분 전, 15:00시(UTC)에 발표되었습니다.
남남동6kt
온도 12°C
습도 82%
기압 1028 hPa
시정 10km 이상
고도 2000ft 상공 구름 조금
고도 3600ft 상공 구름 많음

METAR: YMML 241500Z 16006KT 9999 FEW020 BKN036 12/09 Q1028 INTER 1500/1800 7000 -SHRA BKN012

시각: 01:36 (15:36 UTC)

예보

예보는 4 시간 21분 전, 11:15시(UTC)에 발표되었습니다.
예보 대상 시간: 24일 12시부터 25일 18시까지 (UTC)
남남서5kt
시정 10km 이상
고도 1500ft 상공 구름 보통
고도 2500ft 상공 구름 많음
약한소나기
24일 1700시부터 (UTC)
여러 방향의 바람 5kt
시정 10km 이상
고도 1200ft 상공 구름 조금
고도 2000ft 상공 구름 많음
25일 0100시부터 (UTC)
7kt
시정 10km 이상
고도 3000ft 상공 구름 조금
25일 1200시부터 (UTC)
8kt
시정: 7000m
고도 3000ft 상공 구름 조금
고도 1200ft 상공 구름 많음
약한소나기

TAF: YMML 241115Z 2412/2518 20005KT 9999 -SHRA SCT015 BKN025 FM241700 VRB05KT 9999 FEW012 BKN020 FM250100 19007KT 9999 FEW030 FM251200 36008KT 9999 FEW030 INTER 2412/2418 7000 -SHRA BKN012

4,000개 이상의 공항 관측 자료 및 예보 (METAR 및 TAF 보고).

지도상에서 검색 가능한 기상관측소가 노란 점과 빨간 점으로 표시되어 있습니다.

기상관측소 명을 보려면 표시 위로 마우스를 이동하세요.

날씨 관측과 예보를 보려면 클릭하세요.

지도 변경 : 확대하려면 엑스 표시가 있는 녹색 버튼, 축소하려면 빼기 표시가 있는 녹색 버튼, 다음 페이지의 지도를 보려면 녹색 화살표를 클릭하세요.


METAR-TAF: